首页
METAR-TAF:

METAR-TAF

机场 :

Naval Air Station JRB Fort Worth (Carswell Field)

沃思堡, 得克萨斯州, 美国

纬度: 32-45-57N, 经度: 097-26-00W, 海拔: 198米

当前天气观测

该预报发布于52分钟前的16:52 UTC
风速7节,风向
温度 31°C
湿度 59%
气压 1022 hPa
能見度: 16.1公里
少量云层高于2900英尺
散云层高于4700英尺
多云层高于18000英尺
多云层高于25000英尺

METAR: KNFW 201652Z 09007KT 10SM FEW029 SCT047 BKN180 BKN250 31/22 A3019 RMK AO2 SLP205 T03060217 $

时间: 12:44 (17:44 UTC)

预报

预报有效从20日的 15点(UTC)到 21日的 15点(UTC)
风速9节,风向东转东南
能见度10公里或以上
散云层高于2200英尺
多云层高于3500英尺
多云层高于12000英尺
多云层高于25000英尺
短暂存在
从 20日的 15点(UTC)到 20日的 16点(UTC)
多云层高于2200英尺
多云层高于2800英尺
从 20日的 1700点(UTC)
风速12节,风向东转东南,有时为18节阵风
能见度10公里或以上
少量云层高于3000英尺
散云层高于4500英尺
多云层高于18000英尺
多云层高于25000英尺
从 21日的 0100点(UTC)
风速9节,风向东转东南
能见度10公里或以上
少量云层高于2200英尺
散云层高于6000英尺
多云层高于25000英尺
从 21日的 0900点(UTC)
风速6节,风向
能見度: 9000
多云层高于2000英尺
阴天层高于3500英尺
轻雾,

TAF: KNFW 2015/2115 12009KT 9999 SCT022 BKN035 BKN120 BKN250 QNH3012INS TEMPO 2015/2016 BKN022 BKN028 FM201700 12012G18KT 9999 FEW030 SCT045 BKN180 BKN250 QNH3004INS FM210100 12009KT 9999 FEW022 SCT060 BKN250 QNH3006INS FM210900 10006KT 9000 BR BKN020 OVC035 QNH3010INS TX33/2022Z TN24/2110Z FN20046

超过4000个机场的气象观测和天气预报(METAR&TAF报告)。

可查询的气象台以黄色和红色小点在地图上表示。

将鼠标移到小点上方,可查看气象台名称。

然后点击查看天气观测和预报。

如需切换地图:点击带黑十字的绿色按钮放大地图;点击带横线的绿色按钮缩小地图;或者点击绿色箭头查看邻近地区的地图。


METAR-TAF: